PILOTS ONLINE: 450    ATC ONLINE: 48

KCWA

Central Wisconsin Airport

Location

IATA CWA
City Mosinee
Country  United States
Latitude 44° 46' 39" N
Longitude 89° 40' 0" W
Elevation 1277 ft
Type Medium Airport

Map

Weather

METAR
2014/09/23 15:45
KCWA 231545Z 24003KT 10SM SKC 18/12 A3031
TAF
2014/09/23 12:30
TAF KCWA 231127Z 2312/2412 VRB03KT P6SM SKC 
      TEMPO 2312/2313 1/2SM FG VV002 
     FM231400 20007KT P6SM FEW050 
     FM240000 15004KT P6SM BKN250

Runways

08/26 7645 ft / 150 ft
17/35 6501 ft / 150 ft

Outbound flights

Callsign Flying to Pilot ATD/STD ETA Aircraft

Inbound flights

Callsign Flying from Pilot ATD ETA Aircraft